EDLP/PAD METAR and TAF weather

Enter ICAO airport designator
Station Type Date Time Source
EDLP METAR 2019/02/21 16:20 UTC NOAA

EDLP 211620Z 25007KT 220V290 9999 BKN036 10/05 Q1026


Station Type Date Time Source
EDLP Decoded METAR 2019/02/21 16:20 UTC NOAA

Paderborn / Lippstadt, Germany (EDLP) 51-37N 008-37E
Feb 21, 2019 - 11:20 AM EST / 2019.02.21 1620 UTC
Wind: from the WSW (250 degrees) at 8 MPH (7 KT) (direction variable):0
Visibility: greater than 7 mile(s):0
Sky conditions: mostly cloudy
Temperature: 50 F (10 C)
Dew Point: 41 F (5 C)
Relative Humidity: 71%
Pressure (altimeter): 30.30 in. Hg (1026 hPa)
ob: EDLP 211620Z 25007KT 220V290 9999 BKN036 10/05 Q1026
cycle: 16

Station Type Date Time Source
EDLP TAF 2019/02/21 12:29 UTC NOAA

TAF EDLP 211100Z 2112/2212 26010KT 9999 BKN030
BECMG 2119/2123 28005KT 4000 BR BKN008
TEMPO 2122/2209 1400 DZ OVC004 PROB40
TEMPO 2205/2208 0500 FG OVC001
BECMG 2206/2209 36004KT


Example: see airport list